11 août 2022

Temps Code Temps Temp. Vue Base cloud Vent METAR/SPECI
20:00
V
34 °C 10 km+ - 140° 140° 10 kt METAR LFBO 111800Z AUTO 14010KT 9999 FEW007 34/18 Q1012 NOSIG
19:30
V
35 °C 10 km+ - 160° 160° 10 kt METAR LFBO 111730Z AUTO 16010KT CAVOK 35/16 Q1012 NOSIG
19:00
V
36 °C 10 km+ - 150° 150° 9 kt METAR LFBO 111700Z AUTO 15009KT CAVOK 36/16 Q1012 NOSIG
18:30
V
37 °C 10 km+ - 150° 150° 7 kt METAR LFBO 111630Z AUTO 15007KT 100V180 CAVOK 37/16 Q1012 NOSIG
18:00
V
37 °C 10 km+ - 130° 130° 7 kt METAR LFBO 111600Z AUTO 13007KT 090V180 CAVOK 37/17 Q1012 NOSIG
17:30
V
37 °C 10 km+ - 130° 130° 10 kt METAR LFBO 111530Z AUTO 13010KT 100V170 CAVOK 37/17 Q1012 NOSIG
17:00
V
36 °C 10 km+ - 120° 120° 8 kt METAR LFBO 111500Z AUTO 12008KT 090V160 CAVOK 36/16 Q1012 NOSIG
16:30
V
37 °C 10 km+ 16.000 ft 150° 150° 9 kt METAR LFBO 111430Z AUTO 15009KT 120V180 9999 FEW010 BKN160 37/16 Q1013 NOSIG
16:00
V
37 °C 10 km+ - 140° 140° 9 kt METAR LFBO 111400Z AUTO 14009KT 100V170 CAVOK 37/17 Q1013 NOSIG
15:30
V
37 °C 10 km+ - 130° 130° 8 kt METAR LFBO 111330Z AUTO 13008KT 080V180 CAVOK 37/18 Q1013 NOSIG
15:00
V
36 °C 10 km+ - 140° 140° 9 kt METAR LFBO 111300Z AUTO 14009KT 100V180 CAVOK 36/18 Q1014 NOSIG
14:30
V
36 °C 10 km+ - 140° 140° 10 kt METAR LFBO 111230Z AUTO 14010KT 100V170 9999 FEW007 36/19 Q1014 NOSIG
14:00
V
35 °C 10 km+ - 120° 120° 9 kt METAR LFBO 111200Z AUTO 12009KT 080V160 CAVOK 35/18 Q1014 NOSIG
13:30
V
35 °C 10 km+ - 130° 130° 7 kt METAR LFBO 111130Z AUTO 13007KT 080V180 CAVOK 35/17 Q1014 NOSIG
13:00
V
34 °C 10 km+ - 140° 140° 8 kt METAR LFBO 111100Z AUTO 14008KT 100V180 CAVOK 34/19 Q1015 NOSIG
12:30
V
33 °C 10 km+ - 130° 130° 10 kt METAR LFBO 111030Z AUTO 13010KT 090V160 CAVOK 33/20 Q1015 NOSIG
12:00
V
32 °C 10 km+ - 150° 150° 10 kt METAR LFBO 111000Z AUTO 15010KT 110V180 9999 FEW016 32/20 Q1015 NOSIG
11:30
V
31 °C 10 km+ - 120° 120° 11 kt METAR LFBO 110930Z AUTO 12011KT CAVOK 31/20 Q1015 NOSIG
11:00
V
30 °C 10 km+ - 150° 150° 11 kt METAR LFBO 110900Z AUTO 15011KT 120V180 CAVOK 30/21 Q1015 NOSIG
10:30
V
29 °C 10 km+ - 130° 130° 12 kt METAR LFBO 110830Z AUTO 13012KT 110V170 CAVOK 29/21 Q1015 NOSIG
10:00
V
28 °C 10 km+ - 130° 130° 12 kt METAR LFBO 110800Z AUTO 13012KT CAVOK 28/21 Q1015 NOSIG
09:30
V
27 °C 10 km+ - 140° 140° 11 kt METAR LFBO 110730Z AUTO 14011KT CAVOK 27/21 Q1015 NOSIG
09:00
V
26 °C 10 km+ - 150° 150° 11 kt METAR LFBO 110700Z AUTO 15011KT 9999 FEW009 26/21 Q1015 NOSIG
08:30
V
25 °C 10 km+ - 140° 140° 13 kt METAR LFBO 110630Z AUTO 14013KT CAVOK 25/21 Q1015 NOSIG
08:00
V
24 °C 10 km+ - 150° 150° 10 kt METAR LFBO 110600Z AUTO 15010KT CAVOK 24/21 Q1015 NOSIG
07:30
V
24 °C 10 km+ - 150° 150° 10 kt METAR LFBO 110530Z AUTO 15010KT 9999 FEW009 SCT130 24/21 Q1015 NOSIG
07:00
V
24 °C 10 km+ - 150° 150° 8 kt METAR LFBO 110500Z AUTO 15008KT 9999 FEW007 24/21 Q1015 TEMPO BKN010
06:30
V
24 °C 10 km+ - 160° 160° 7 kt METAR LFBO 110430Z AUTO 16007KT 9999 FEW009 24/21 Q1015 TEMPO BKN010
06:00
V
24 °C 10 km+ - 160° 160° 10 kt METAR LFBO 110400Z AUTO 16010KT CAVOK 24/21 Q1015 TEMPO BKN010
05:30
V
24 °C 10 km+ - 150° 150° 9 kt METAR LFBO 110330Z AUTO 15009KT CAVOK 24/21 Q1015 TEMPO BKN010
05:00
V
24 °C 10 km+ - 150° 150° 12 kt METAR LFBO 110300Z AUTO 15012KT CAVOK 24/21 Q1015 TEMPO BKN010
04:30
V
24 °C 10 km+ - 140° 140° 9 kt METAR LFBO 110230Z AUTO 14009KT CAVOK 24/21 Q1015 TEMPO BKN010
04:00
V
24 °C 10 km+ - 140° 140° 8 kt METAR LFBO 110200Z AUTO 14008KT CAVOK 24/20 Q1015 NOSIG
03:30
V
25 °C 10 km+ - 130° 130° 9 kt METAR LFBO 110130Z AUTO 13009KT 100V160 CAVOK 25/20 Q1014 NOSIG
03:00
V
25 °C 10 km+ - 150° 150° 6 kt METAR LFBO 110100Z AUTO 15006KT CAVOK 25/18 Q1014 NOSIG
02:30
V
25 °C 10 km+ - 150° 150° 6 kt METAR LFBO 110030Z AUTO 15006KT CAVOK 25/17 Q1014 NOSIG
02:00
V
25 °C 10 km+ - 150° 150° 7 kt METAR LFBO 110000Z AUTO 15007KT CAVOK 25/17 Q1014 NOSIG
01:30
V
25 °C 10 km+ - 170° 170° 6 kt METAR LFBO 102330Z AUTO 17006KT CAVOK 25/19 Q1014 NOSIG
01:00
V
26 °C 10 km+ - 200° 200° 7 kt METAR LFBO 102300Z AUTO 20007KT CAVOK 26/18 Q1014 TEMPO 12010KT
00:30
V
26 °C 10 km+ - 180° 180° 6 kt METAR LFBO 102230Z AUTO 18006KT CAVOK 26/17 Q1014 TEMPO 12010KT
00:00
V
27 °C 10 km+ - 160° 160° 5 kt METAR LFBO 102200Z AUTO 16005KT CAVOK 27/17 Q1014 TEMPO 22015KT

10 août 2022

Temps Code Temps Temp. Vue Base cloud Vent METAR/SPECI
23:30
V
28 °C 10 km+ - 150° 150° 7 kt METAR LFBO 102130Z AUTO 15007KT CAVOK 28/17 Q1014 TEMPO 22015KT
23:00
V
28 °C 10 km+ - 140° 140° 8 kt METAR LFBO 102100Z AUTO 14008KT CAVOK 28/17 Q1015 TEMPO 22015KT
22:30
V
29 °C 10 km+ - 160° 160° 8 kt METAR LFBO 102030Z AUTO 16008KT 130V190 CAVOK 29/17 Q1015 NOSIG
22:00
V
30 °C 10 km+ - 150° 150° 7 kt METAR LFBO 102000Z AUTO 15007KT 130V190 CAVOK 30/17 Q1015 NOSIG
21:30
V
31 °C 10 km+ - 140° 140° 10 kt METAR LFBO 101930Z AUTO 14010KT CAVOK 31/15 Q1014 TEMPO 22015KT
21:00
V
32 °C 10 km+ - 140° 140° 8 kt METAR LFBO 101900Z AUTO 14008KT CAVOK 32/12 Q1014 TEMPO 22015KT
20:30
V
34 °C 10 km+ - 130° 130° 8 kt METAR LFBO 101830Z AUTO 13008KT CAVOK 34/12 Q1013 TEMPO 22015KT
20:00
V
36 °C 10 km+ - 360° 360° 8 kt METAR LFBO 101800Z AUTO 36008KT CAVOK 36/08 Q1013 NOSIG
19:30
V
37 °C 10 km+ - 020° 020° 5 kt METAR LFBO 101730Z AUTO 02005KT 340V080 CAVOK 37/08 Q1013 NOSIG
19:00
V
37 °C 10 km+ - 020° 020° 7 kt METAR LFBO 101700Z AUTO 02007KT 350V070 CAVOK 37/07 Q1013 NOSIG
18:30
V
37 °C 10 km+ - Var Var 3 kt METAR LFBO 101630Z AUTO VRB03KT CAVOK 37/07 Q1013 NOSIG
18:00
V
38 °C 10 km+ - 010° 010° 5 kt METAR LFBO 101600Z AUTO 01005KT 330V040 CAVOK 38/08 Q1013 NOSIG
17:30
V
39 °C 10 km+ - Var Var 2 kt METAR LFBO 101530Z AUTO VRB02KT CAVOK 39/08 Q1014 NOSIG
17:00
V
38 °C 10 km+ - 140° 140° 5 kt METAR LFBO 101500Z AUTO 14005KT 070V230 CAVOK 38/09 Q1014 NOSIG
16:30
V
38 °C 10 km+ - Var Var 3 kt METAR LFBO 101430Z AUTO VRB03KT CAVOK 38/09 Q1014 NOSIG
16:00
V
37 °C 10 km+ - 110° 110° 5 kt METAR LFBO 101400Z AUTO 11005KT 060V150 CAVOK 37/08 Q1015 NOSIG
15:30
V
37 °C 10 km+ - 020° 020° 5 kt METAR LFBO 101330Z AUTO 02005KT 310V090 CAVOK 37/10 Q1015 NOSIG
15:00
V
37 °C 10 km+ - Var Var 5 kt METAR LFBO 101300Z AUTO VRB05KT CAVOK 37/09 Q1015 NOSIG
14:30
V
36 °C 10 km+ - 030° 030° 4 kt METAR LFBO 101230Z AUTO 03004KT 330V120 9999 FEW008 36/08 Q1015 NOSIG
14:00
V
36 °C 10 km+ - Var Var 3 kt METAR LFBO 101200Z AUTO VRB03KT CAVOK 36/06 Q1016 NOSIG
13:30
V
35 °C 10 km+ - 110° 110° 5 kt METAR LFBO 101130Z AUTO 11005KT 050V170 CAVOK 35/09 Q1016 NOSIG
13:00
V
35 °C 10 km+ - 130° 130° 6 kt METAR LFBO 101100Z AUTO 13006KT 070V200 CAVOK 35/10 Q1016 NOSIG
12:30
V
34 °C 10 km+ - 100° 100° 6 kt METAR LFBO 101030Z AUTO 10006KT 050V150 CAVOK 34/11 Q1016 NOSIG
12:00
V
33 °C 10 km+ - Var Var 5 kt METAR LFBO 101000Z AUTO VRB05KT CAVOK 33/13 Q1016 NOSIG
11:30
V
32 °C 10 km+ - 150° 150° 4 kt METAR LFBO 100930Z AUTO 15004KT 100V220 CAVOK 32/13 Q1017 NOSIG
11:00
V
31 °C 10 km+ - 110° 110° 5 kt METAR LFBO 100900Z AUTO 11005KT 050V150 CAVOK 31/14 Q1017 NOSIG
10:30
V
30 °C 10 km+ - 140° 140° 3 kt METAR LFBO 100830Z AUTO 14003KT 040V210 CAVOK 30/14 Q1017 NOSIG
10:00
V
28 °C 10 km+ - 170° 170° 5 kt METAR LFBO 100800Z AUTO 17005KT 140V200 CAVOK 28/14 Q1017 NOSIG
09:30
V
26 °C 10 km+ - 180° 180° 6 kt METAR LFBO 100730Z AUTO 18006KT CAVOK 26/14 Q1017 NOSIG
09:00
V
24 °C 10 km+ - 180° 180° 5 kt METAR LFBO 100700Z AUTO 18005KT CAVOK 24/14 Q1017 NOSIG
08:30
V
22 °C 10 km+ - 190° 190° 3 kt METAR LFBO 100630Z AUTO 19003KT CAVOK 22/14 Q1017 NOSIG
08:00
V
20 °C 10 km+ - 180° 180° 3 kt METAR LFBO 100600Z AUTO 18003KT CAVOK 20/14 Q1017 NOSIG
07:30
V
19 °C 10 km+ - 180° 180° 3 kt METAR LFBO 100530Z AUTO 18003KT 9999 FEW007 19/14 Q1017 NOSIG
07:00
V
19 °C 10 km+ - 180° 180° 4 kt METAR LFBO 100500Z AUTO 18004KT CAVOK 19/13 Q1017 NOSIG
06:30
V
19 °C 10 km+ - 170° 170° 4 kt METAR LFBO 100430Z AUTO 17004KT 9999 FEW009 19/14 Q1017 NOSIG
06:00
V
19 °C 10 km+ - 150° 150° 3 kt METAR LFBO 100400Z AUTO 15003KT CAVOK 19/14 Q1016 NOSIG
05:30
V
20 °C 10 km+ - 190° 190° 4 kt METAR LFBO 100330Z AUTO 19004KT CAVOK 20/14 Q1016 NOSIG
05:00
V
20 °C 10 km+ - 190° 190° 4 kt METAR LFBO 100300Z AUTO 19004KT CAVOK 20/14 Q1016 NOSIG
04:30
V
20 °C 10 km+ - Var 000° 0 kt METAR LFBO 100230Z AUTO 00000KT CAVOK 20/14 Q1016 NOSIG
04:00
V
21 °C 10 km+ - Var Var 2 kt METAR LFBO 100200Z AUTO VRB02KT CAVOK 21/14 Q1016 NOSIG
03:30
V
21 °C 10 km+ - 190° 190° 3 kt METAR LFBO 100130Z AUTO 19003KT CAVOK 21/13 Q1016 NOSIG
03:00
V
21 °C 10 km+ - Var Var 2 kt METAR LFBO 100100Z AUTO VRB02KT CAVOK 21/13 Q1016 NOSIG
02:30
V
22 °C 10 km+ - Var Var 3 kt METAR LFBO 100030Z AUTO VRB03KT CAVOK 22/11 Q1016 NOSIG
02:00
V
23 °C 10 km+ - Var Var 3 kt METAR LFBO 100000Z AUTO VRB03KT CAVOK 23/10 Q1016 NOSIG
01:30
V
23 °C 10 km+ - 190° 190° 3 kt METAR LFBO 092330Z AUTO 19003KT CAVOK 23/10 Q1017 NOSIG
01:00
V
24 °C 10 km+ - 180° 180° 4 kt METAR LFBO 092300Z AUTO 18004KT CAVOK 24/09 Q1017 NOSIG
00:30
V
27 °C 10 km+ - 310° 310° 4 kt METAR LFBO 092230Z AUTO 31004KT CAVOK 27/08 Q1016 NOSIG
00:00
V
27 °C 10 km+ - 280° 280° 4 kt METAR LFBO 092200Z AUTO 28004KT CAVOK 27/08 Q1017 NOSIG

9 août 2022

Temps Code Temps Temp. Vue Base cloud Vent METAR/SPECI
23:30
V
28 °C 10 km+ - 300° 300° 5 kt METAR LFBO 092130Z AUTO 30005KT 250V340 CAVOK 28/08 Q1016 NOSIG
23:00
V
30 °C 10 km+ - 350° 350° 5 kt METAR LFBO 092100Z AUTO 35005KT CAVOK 30/07 Q1017 NOSIG
22:30
V
30 °C 10 km+ - 320° 320° 5 kt METAR LFBO 092030Z AUTO 32005KT CAVOK 30/07 Q1017 NOSIG
22:00
V
30 °C 10 km+ - 320° 320° 4 kt METAR LFBO 092000Z AUTO 32004KT CAVOK 30/07 Q1017 NOSIG
21:30
V
32 °C 10 km+ - 320° 320° 5 kt METAR LFBO 091930Z AUTO 32005KT CAVOK 32/07 Q1017 NOSIG
21:00
V
33 °C 10 km+ - 320° 320° 6 kt METAR LFBO 091900Z AUTO 32006KT CAVOK 33/06 Q1017 NOSIG
20:30
V
34 °C 10 km+ - 310° 310° 8 kt METAR LFBO 091830Z AUTO 31008KT CAVOK 34/05 Q1016 NOSIG
20:00
V
35 °C 10 km+ - 310° 310° 7 kt METAR LFBO 091800Z AUTO 31007KT 260V340 CAVOK 35/05 Q1016 NOSIG
19:30
V
35 °C 10 km+ - 330° 330° 5 kt METAR LFBO 091730Z AUTO 33005KT 280V360 CAVOK 35/06 Q1016 NOSIG
19:00
V
36 °C 10 km+ - Var Var 3 kt METAR LFBO 091700Z AUTO VRB03KT CAVOK 36/03 Q1016 NOSIG
18:30
V
36 °C 10 km+ - 340° 340° 5 kt METAR LFBO 091630Z AUTO 34005KT 290V060 CAVOK 36/06 Q1016 NOSIG
18:00
V
36 °C 10 km+ - 350° 350° 7 kt METAR LFBO 091600Z AUTO 35007KT 320V030 CAVOK 36/06 Q1016 NOSIG
17:30
V
36 °C 10 km+ - 360° 360° 9 kt METAR LFBO 091530Z AUTO 36009KT 330V030 9999 FEW011 36/07 Q1017 NOSIG
17:00
V
36 °C 10 km+ - Var Var 3 - 13 kt METAR LFBO 091500Z AUTO VRB03G13KT CAVOK 36/09 Q1017 NOSIG
Données plus anciennes

Nous et des tiers suivons ton comportement sur Internet sur notre site Web à l'aide de cookies. Si tu continues, nous supposons que tu acceptes notre politique en matière de cookies. Apprendre plus